createdAt,value
2018-04-19T00:01:54.922Z,91.80
2018-04-19T00:04:22.379Z,92.20
2018-04-19T00:06:49.831Z,92.60
2018-04-19T00:09:17.271Z,93.30
2018-04-19T00:11:44.722Z,92.90
2018-04-19T00:14:12.164Z,93.20
2018-04-19T00:16:40.391Z,94.10
2018-04-19T00:19:07.822Z,94.10
2018-04-19T00:21:35.263Z,94.30
2018-04-19T00:24:02.722Z,93.50
2018-04-19T00:26:30.179Z,93.70
2018-04-19T00:28:57.641Z,93.80
2018-04-19T00:31:25.079Z,94.10
2018-04-19T00:33:53.299Z,94.10
2018-04-19T00:36:20.734Z,94.20
2018-04-19T00:38:48.189Z,95.00
2018-04-19T00:41:15.625Z,95.80
2018-04-19T00:43:43.837Z,95.30
2018-04-19T00:46:11.277Z,95.30
2018-04-19T00:48:38.744Z,95.90
2018-04-19T00:51:06.205Z,95.90
2018-04-19T00:53:33.663Z,95.40
2018-04-19T00:56:01.123Z,95.20
2018-04-19T00:58:28.568Z,95.90
2018-04-19T01:00:56.022Z,95.10
2018-04-19T01:03:24.218Z,95.70
2018-04-19T01:05:51.668Z,95.70
2018-04-19T01:08:19.117Z,94.80
2018-04-19T01:10:46.561Z,95.30
2018-04-19T01:13:14.051Z,95.10
2018-04-19T01:15:41.502Z,95.50
2018-04-19T01:18:08.956Z,96.20
2018-04-19T01:20:36.399Z,95.60
2018-04-19T01:23:03.867Z,96.30
2018-04-19T01:25:31.307Z,96.50
2018-04-19T01:27:58.758Z,97.20
2018-04-19T01:30:26.962Z,97.00
2018-04-19T01:32:54.415Z,97.00
2018-04-19T01:35:33.695Z,97.30
2018-04-19T01:38:01.149Z,97.30
2018-04-19T01:40:28.584Z,97.50
2018-04-19T01:42:56.046Z,97.40
2018-04-19T01:45:23.485Z,97.50
2018-04-19T01:47:50.933Z,97.70
2018-04-19T01:50:19.134Z,97.40
2018-04-19T01:52:46.591Z,97.40
2018-04-19T01:55:14.029Z,95.50
2018-04-19T01:57:41.487Z,95.60
2018-04-19T02:00:08.968Z,96.00
2018-04-19T02:02:36.398Z,96.40
2018-04-19T02:05:03.857Z,97.00
2018-04-19T02:07:37.263Z,97.90
2018-04-19T02:10:04.704Z,97.10
2018-04-19T02:12:32.154Z,97.70
2018-04-19T02:14:59.594Z,98.50
2018-04-19T02:17:27.803Z,99.10
2018-04-19T02:19:55.260Z,99.10
2018-04-19T02:22:22.711Z,99.10
2018-04-19T02:24:50.176Z,98.60
2018-04-19T02:27:17.622Z,98.80
2018-04-19T02:29:45.082Z,98.80
2018-04-19T02:32:12.530Z,99.30
2018-04-19T02:34:39.990Z,98.60
2018-04-19T02:37:07.430Z,98.90
2018-04-19T02:39:34.962Z,98.50
2018-04-19T02:42:02.411Z,97.90
2018-04-19T02:44:29.883Z,97.10
2018-04-19T02:46:58.103Z,96.90
2018-04-19T02:49:25.563Z,96.80
2018-04-19T02:51:53.002Z,96.60
2018-04-19T02:54:20.475Z,96.70
2018-04-19T02:56:48.700Z,96.50
2018-04-19T02:59:16.159Z,96.50
2018-04-19T03:01:44.379Z,96.30
2018-04-19T03:04:12.626Z,96.00
2018-04-19T03:06:40.847Z,96.10
2018-04-19T03:09:08.327Z,96.10
2018-04-19T03:11:35.783Z,95.80
2018-04-19T03:14:03.239Z,96.10
2018-04-19T03:16:30.699Z,96.60
2018-04-19T03:18:58.185Z,96.50
2018-04-19T03:21:26.390Z,96.20
2018-04-19T03:23:53.863Z,96.10
2018-04-19T03:26:21.306Z,96.10
2018-04-19T03:28:48.798Z,96.10
2018-04-19T03:31:16.234Z,96.10
2018-04-19T03:33:43.702Z,96.30
2018-04-19T03:36:11.378Z,96.70
2018-04-19T03:38:38.835Z,96.50
2018-04-19T03:41:06.300Z,96.60
2018-04-19T03:43:33.744Z,96.80
2018-04-19T03:46:01.210Z,96.80
2018-04-19T03:48:28.669Z,96.80
2018-04-19T03:50:56.118Z,96.80
2018-04-19T03:53:23.578Z,96.90
2018-04-19T03:55:51.029Z,96.60
2018-04-19T03:58:18.486Z,96.80
2018-04-19T04:00:46.670Z,96.70
2018-04-19T04:03:14.122Z,96.90
2018-04-19T04:05:41.582Z,96.50
2018-04-19T04:08:09.037Z,96.30
2018-04-19T04:10:37.295Z,96.30
2018-04-19T04:13:04.760Z,96.10
2018-04-19T04:15:32.210Z,96.20
2018-04-19T04:21:14.192Z,95.90
2018-04-19T04:23:51.486Z,95.70
2018-04-19T04:26:18.953Z,95.80
2018-04-19T04:28:46.402Z,95.80
2018-04-19T04:31:13.925Z,95.50
2018-04-19T04:33:41.307Z,95.50
2018-04-19T04:36:08.757Z,95.60
2018-04-19T04:38:36.969Z,96.70
2018-04-19T04:41:04.442Z,96.70
2018-04-19T04:43:31.910Z,98.00
2018-04-19T04:45:59.379Z,97.90
2018-04-19T04:48:26.846Z,98.20
2018-04-19T04:50:54.302Z,98.60
2018-04-19T04:53:21.773Z,98.30
2018-04-19T04:55:49.203Z,97.80
2018-04-19T04:58:16.662Z,97.80
2018-04-19T05:00:44.118Z,98.40
2018-04-19T05:03:11.593Z,98.00
2018-04-19T05:05:39.864Z,98.00
2018-04-19T05:08:07.290Z,98.00
2018-04-19T05:10:34.747Z,97.90
2018-04-19T05:13:02.206Z,97.50
2018-04-19T05:15:29.659Z,97.30
2018-04-19T05:17:57.111Z,97.90
2018-04-19T05:20:24.625Z,97.50
2018-04-19T05:22:52.091Z,97.20
2018-04-19T05:25:19.535Z,96.60
2018-04-19T05:27:47.770Z,96.10
2018-04-19T05:30:15.215Z,96.00
2018-04-19T05:32:42.682Z,96.90
2018-04-19T05:35:10.159Z,96.50
2018-04-19T05:37:37.602Z,96.00
2018-04-19T05:40:05.052Z,95.60
2018-04-19T05:42:32.575Z,95.70
2018-04-19T05:45:00.026Z,95.50
2018-04-19T05:47:27.493Z,95.10
2018-04-19T05:49:54.935Z,94.60
2018-04-19T05:52:22.395Z,94.40
2018-04-19T05:54:49.845Z,93.30
2018-04-19T05:57:17.307Z,93.10
2018-04-19T05:59:44.745Z,92.60
2018-04-19T06:02:12.970Z,92.00
2018-04-19T06:04:40.401Z,92.00
2018-04-19T06:07:07.853Z,90.90
2018-04-19T06:09:35.302Z,90.60
2018-04-19T06:12:03.526Z,88.10
2018-04-19T06:14:30.983Z,88.10
2018-04-19T06:16:58.441Z,84.30
2018-04-19T06:19:25.903Z,81.70
2018-04-19T06:21:53.361Z,79.60
2018-04-19T06:24:20.814Z,82.10
2018-04-19T06:26:48.278Z,81.10
2018-04-19T06:29:15.721Z,82.30
2018-04-19T06:31:43.178Z,84.10
2018-04-19T06:34:10.645Z,83.00
2018-04-19T06:36:38.146Z,83.50
2018-04-19T06:39:06.380Z,79.70
2018-04-19T06:41:33.935Z,79.80
2018-04-19T06:44:01.338Z,80.50
2018-04-19T06:46:29.566Z,77.80
2018-04-19T06:48:57.018Z,77.80
2018-04-19T06:51:24.469Z,73.00
2018-04-19T06:53:51.906Z,72.20
2018-04-19T06:56:19.392Z,72.30
2018-04-19T06:58:46.833Z,70.30
2018-04-19T07:01:14.282Z,69.30
2018-04-19T07:03:41.717Z,67.50
2018-04-19T07:06:09.182Z,66.40
2018-04-19T07:08:36.638Z,67.10
2018-04-19T07:11:04.101Z,68.30
2018-04-19T07:13:31.553Z,62.40
2018-04-19T07:15:58.998Z,62.60
2018-04-19T07:18:27.216Z,60.10
2018-04-19T07:20:54.690Z,59.90
2018-04-19T07:23:22.181Z,59.00
2018-04-19T07:25:50.403Z,59.90
2018-04-19T07:28:17.856Z,59.70
2018-04-19T07:30:45.310Z,58.50
2018-04-19T07:33:12.767Z,56.50
2018-04-19T07:35:40.195Z,55.80
2018-04-19T07:38:07.655Z,55.40
2018-04-19T07:40:35.105Z,55.30
2018-04-19T07:43:03.326Z,52.20
2018-04-19T07:45:30.786Z,52.10
2018-04-19T07:47:58.241Z,53.80
2018-04-19T07:50:25.686Z,51.40
2018-04-19T07:52:53.157Z,54.70
2018-04-19T07:55:20.597Z,50.90
2018-04-19T07:57:48.058Z,49.50
2018-04-19T08:00:15.529Z,49.60
2018-04-19T08:02:42.978Z,46.90
2018-04-19T08:05:10.435Z,45.80
2018-04-19T08:07:37.902Z,45.50
2018-04-19T08:10:05.363Z,43.00
2018-04-19T08:12:32.827Z,43.90
2018-04-19T08:15:00.302Z,41.90
2018-04-19T08:17:27.756Z,43.60
2018-04-19T08:19:55.209Z,41.40
2018-04-19T08:22:22.665Z,41.90
2018-04-19T08:24:50.095Z,38.70
2018-04-19T08:27:17.579Z,39.10
2018-04-19T08:29:45.046Z,38.70
2018-04-19T08:32:12.502Z,40.30
2018-04-19T08:34:39.946Z,37.30
2018-04-19T08:37:07.431Z,38.50
2018-04-19T08:39:35.657Z,37.90
2018-04-19T08:42:03.127Z,37.80
2018-04-19T08:44:30.609Z,39.30
2018-04-19T08:46:58.038Z,35.70
2018-04-19T08:49:25.544Z,34.70
2018-04-19T08:51:52.961Z,35.80
2018-04-19T08:54:20.421Z,34.60
2018-04-19T08:56:47.862Z,35.40
2018-04-19T08:59:15.331Z,34.00
2018-04-19T09:01:42.774Z,33.90
2018-04-19T09:04:10.226Z,30.00
2018-04-19T09:06:37.674Z,31.00
2018-04-19T09:09:05.962Z,28.30
2018-04-19T09:11:33.425Z,28.60
2018-04-19T09:14:00.910Z,28.40
2018-04-19T09:16:28.355Z,29.40
2018-04-19T09:18:55.888Z,27.90
2018-04-19T09:21:23.352Z,27.10
2018-04-19T09:23:50.810Z,27.40
2018-04-19T09:26:18.263Z,27.90
2018-04-19T09:28:45.734Z,26.70
2018-04-19T09:31:13.273Z,26.90
2018-04-19T09:33:40.714Z,26.50
2018-04-19T09:36:08.162Z,26.80
2018-04-19T09:38:35.608Z,26.70
2018-04-19T09:41:03.837Z,26.10
2018-04-19T09:43:31.306Z,26.00
2018-04-19T09:45:58.766Z,26.40
2018-04-19T09:48:26.222Z,26.00
2018-04-19T09:50:53.678Z,26.30
2018-04-19T09:53:21.150Z,26.80
2018-04-19T09:55:48.610Z,25.80
2018-04-19T09:58:16.057Z,26.20
2018-04-19T10:00:45.440Z,25.10
2018-04-19T10:03:18.858Z,24.90
2018-04-19T10:05:47.089Z,25.70
2018-04-19T10:08:14.551Z,25.20
2018-04-19T10:10:42.006Z,25.60
2018-04-19T10:13:09.463Z,24.90
2018-04-19T10:15:36.909Z,25.00
2018-04-19T10:18:04.351Z,25.00
2018-04-19T10:20:32.586Z,25.00
2018-04-19T10:23:00.030Z,25.00
2018-04-19T10:25:27.514Z,25.00
2018-04-19T10:27:54.981Z,25.70
2018-04-19T10:30:22.451Z,27.30
2018-04-19T10:32:50.653Z,27.60
2018-04-19T10:35:18.113Z,27.60
2018-04-19T10:37:45.603Z,28.10
2018-04-19T10:40:13.075Z,26.60
2018-04-19T10:42:40.510Z,26.40
2018-04-19T10:45:07.965Z,26.60
2018-04-19T10:47:35.403Z,28.20
2018-04-19T10:50:02.879Z,27.40
2018-04-19T10:52:30.323Z,26.90
2018-04-19T10:54:57.782Z,27.00
2018-04-19T10:57:25.231Z,26.50
2018-04-19T10:59:52.684Z,26.90
2018-04-19T11:02:20.150Z,27.10
2018-04-19T11:04:47.599Z,25.10
2018-04-19T11:07:15.052Z,26.10
2018-04-19T11:09:42.555Z,25.40
2018-04-19T11:12:09.990Z,25.60
2018-04-19T11:14:46.359Z,26.40
2018-04-19T11:17:13.798Z,25.60
2018-04-19T11:19:41.254Z,25.40
2018-04-19T11:22:08.715Z,24.70
2018-04-19T11:24:36.171Z,24.80
2018-04-19T11:27:03.627Z,25.50
2018-04-19T11:29:34.881Z,24.60
2018-04-19T11:32:02.326Z,24.70
2018-04-19T11:34:29.781Z,25.10
2018-04-19T11:36:57.237Z,24.40
2018-04-19T11:39:24.695Z,24.70
2018-04-19T11:41:52.121Z,25.00
2018-04-19T11:44:19.565Z,25.30
2018-04-19T11:46:47.818Z,24.60
2018-04-19T11:49:16.018Z,24.70
2018-04-19T11:51:44.335Z,23.50
2018-04-19T11:54:11.864Z,23.40
2018-04-19T11:56:40.178Z,25.10
2018-04-19T11:59:07.680Z,25.10
2018-04-19T12:07:27.157Z,25.90
2018-04-19T12:09:54.646Z,24.10
2018-04-19T12:12:22.929Z,24.10
2018-04-19T12:14:51.169Z,23.90
2018-04-19T12:17:18.626Z,23.80
2018-04-19T12:19:46.093Z,24.30
2018-04-19T12:22:13.539Z,24.60
2018-04-19T12:24:41.000Z,24.80
2018-04-19T12:27:08.469Z,24.70
2018-04-19T12:29:35.931Z,24.10
2018-04-19T12:32:03.395Z,24.20
2018-04-19T12:34:30.850Z,24.50
2018-04-19T12:36:58.302Z,25.20
2018-04-19T12:39:25.754Z,24.70
2018-04-19T12:41:53.208Z,23.70
2018-04-19T12:44:20.648Z,25.40
2018-04-19T12:46:48.109Z,26.20
2018-04-19T12:49:15.593Z,26.20
2018-04-19T12:51:43.118Z,26.80
2018-04-19T12:54:10.595Z,28.00
2018-04-19T12:56:38.054Z,27.20
2018-04-19T12:59:05.512Z,26.90
2018-04-19T13:01:32.975Z,27.80
2018-04-19T13:04:00.441Z,26.90
2018-04-19T13:06:28.184Z,26.60
2018-04-19T13:08:55.610Z,27.80
2018-04-19T13:11:23.118Z,27.60
2018-04-19T13:13:50.568Z,27.50
2018-04-19T13:16:18.045Z,28.00
2018-04-19T13:18:45.493Z,26.60
2018-04-19T13:21:12.954Z,27.80
2018-04-19T13:23:40.401Z,28.10
2018-04-19T13:26:07.852Z,29.00
2018-04-19T13:28:35.314Z,29.10
2018-04-19T13:31:02.766Z,28.60
2018-04-19T13:33:30.290Z,29.10
2018-04-19T13:35:57.693Z,28.80
2018-04-19T13:38:25.175Z,28.90
2018-04-19T13:40:53.386Z,29.10
2018-04-19T13:43:20.844Z,29.00
2018-04-19T13:45:48.282Z,27.40
2018-04-19T13:48:15.763Z,27.10
2018-04-19T13:50:43.239Z,28.00
2018-04-19T13:53:10.696Z,27.90
2018-04-19T13:55:38.146Z,27.10
2018-04-19T13:58:05.627Z,27.10
2018-04-19T14:00:33.090Z,26.10
2018-04-19T14:03:00.540Z,27.20
2018-04-19T14:05:28.025Z,26.90
2018-04-19T14:07:56.254Z,26.80
2018-04-19T14:10:23.699Z,26.80
2018-04-19T14:12:51.150Z,26.70
2018-04-19T14:15:18.619Z,27.10
2018-04-19T14:17:46.090Z,27.30
2018-04-19T14:20:13.561Z,26.70
2018-04-19T14:22:41.025Z,26.10
2018-04-19T14:25:08.572Z,26.40
2018-04-19T14:27:36.013Z,26.90
2018-04-19T14:30:03.466Z,26.50
2018-04-19T14:32:30.949Z,26.70
2018-04-19T14:34:58.430Z,26.80
2018-04-19T14:37:26.666Z,26.20
2018-04-19T14:39:54.159Z,26.10
2018-04-19T14:42:22.340Z,26.40
2018-04-19T14:44:50.565Z,26.30
2018-04-19T14:47:18.171Z,26.20
2018-04-19T14:49:46.385Z,25.30
2018-04-19T14:52:14.595Z,26.00
2018-04-19T14:54:42.102Z,26.00
2018-04-19T14:57:09.560Z,26.00
2018-04-19T14:59:37.041Z,24.70
2018-04-19T15:02:04.497Z,25.50
2018-04-19T15:04:31.944Z,25.10
2018-04-19T15:06:59.436Z,25.10
2018-04-19T15:09:26.906Z,25.30
2018-04-19T15:11:54.351Z,24.90
2018-04-19T15:14:21.846Z,25.30
2018-04-19T15:16:50.055Z,25.00
2018-04-19T15:19:17.521Z,25.00
2018-04-19T15:21:44.952Z,24.90
2018-04-19T15:24:12.410Z,25.30
2018-04-19T15:26:39.856Z,24.60
2018-04-19T15:29:07.306Z,24.20
2018-04-19T15:31:35.543Z,23.40
2018-04-19T15:34:02.977Z,23.40
2018-04-19T15:36:30.422Z,23.90
2018-04-19T15:38:57.878Z,26.40
2018-04-19T15:41:25.337Z,27.00
2018-04-19T15:43:52.853Z,27.50
2018-04-19T15:46:20.250Z,27.80
2018-04-19T15:48:47.707Z,27.10
2018-04-19T15:51:15.151Z,27.50
2018-04-19T15:53:42.623Z,27.70
2018-04-19T15:56:10.061Z,27.30
2018-04-19T15:58:37.516Z,27.60
2018-04-19T16:01:05.716Z,26.60
2018-04-19T16:03:33.156Z,26.50
2018-04-19T16:06:00.600Z,26.50
2018-04-19T16:08:28.053Z,26.60
2018-04-19T16:10:56.269Z,27.40
2018-04-19T16:13:23.733Z,27.40
2018-04-19T16:15:51.179Z,27.10
2018-04-19T16:18:18.621Z,25.90
2018-04-19T16:20:46.079Z,26.60
2018-04-19T16:23:13.526Z,27.50
2018-04-19T16:25:41.726Z,28.00
2018-04-19T16:28:09.162Z,28.00
2018-04-19T16:30:36.632Z,28.60
2018-04-19T16:33:04.075Z,29.10
2018-04-19T16:35:31.555Z,28.40
2018-04-19T16:37:58.990Z,28.50
2018-04-19T16:40:26.464Z,28.20
2018-04-19T16:42:53.923Z,28.00
2018-04-19T16:45:21.379Z,28.30
2018-04-19T16:47:48.812Z,28.10
2018-04-19T16:50:16.342Z,28.40
2018-04-19T16:52:43.729Z,28.60
2018-04-19T16:55:11.182Z,28.90
2018-04-19T16:57:38.622Z,28.40
2018-04-19T17:00:06.834Z,27.90
2018-04-19T17:02:34.273Z,27.80
2018-04-19T17:05:01.757Z,28.20
2018-04-19T17:07:29.227Z,27.90
2018-04-19T17:09:56.762Z,28.40
2018-04-19T17:12:24.226Z,28.60
2018-04-19T17:14:51.697Z,28.70
2018-04-19T17:17:19.203Z,28.60
2018-04-19T17:19:47.429Z,28.90
2018-04-19T17:22:14.914Z,28.90
2018-04-19T17:24:42.359Z,28.80
2018-04-19T17:27:09.826Z,29.10
2018-04-19T17:29:37.283Z,29.10
2018-04-19T17:32:04.761Z,29.00
2018-04-19T17:34:32.271Z,29.40
2018-04-19T17:37:00.458Z,29.20
2018-04-19T17:39:27.949Z,29.20
2018-04-19T17:41:55.431Z,29.30
2018-04-19T17:44:22.907Z,29.60
2018-04-19T17:46:50.382Z,29.90
2018-04-19T17:49:17.873Z,30.40
2018-04-19T17:51:45.346Z,32.20
2018-04-19T17:54:13.572Z,34.60
2018-04-19T17:56:41.067Z,33.90
2018-04-19T17:59:08.530Z,34.00
2018-04-19T18:01:36.768Z,35.00
2018-04-19T18:04:04.240Z,35.00
2018-04-19T18:06:31.698Z,36.80
2018-04-19T18:08:59.181Z,39.10
2018-04-19T18:11:27.416Z,40.30
2018-04-19T18:13:54.911Z,40.20
2018-04-19T18:16:23.189Z,41.90
2018-04-19T18:18:50.652Z,41.90
2018-04-19T18:21:19.133Z,41.70
2018-04-19T18:23:47.405Z,42.50
2018-04-19T18:26:14.903Z,42.50
2018-04-19T18:28:42.365Z,41.10
2018-04-19T18:31:09.850Z,41.80
2018-04-19T18:33:37.312Z,42.70
2018-04-19T18:36:04.769Z,42.40
2018-04-19T18:38:32.278Z,43.30
2018-04-19T18:40:59.748Z,43.80
2018-04-19T18:43:27.226Z,43.50
2018-04-19T18:45:54.677Z,45.30
2018-04-19T18:48:22.159Z,44.90
2018-04-19T18:50:49.642Z,45.00
2018-04-19T18:53:17.914Z,46.20
2018-04-19T18:55:46.146Z,45.60
2018-04-19T18:58:13.661Z,45.60
2018-04-19T19:00:41.123Z,47.10
2018-04-19T19:03:08.617Z,46.30
2018-04-19T19:05:36.068Z,48.00
2018-04-19T19:08:03.548Z,47.30
2018-04-19T19:10:31.015Z,48.30
2018-04-19T19:12:58.506Z,48.00
2018-04-19T19:18:52.359Z,50.10
2018-04-19T19:21:19.801Z,50.50
2018-04-19T19:23:47.255Z,49.70
2018-04-19T19:26:14.702Z,50.70
2018-04-19T19:28:42.146Z,52.60
2018-04-19T19:31:09.601Z,52.30
2018-04-19T19:33:37.066Z,54.50
2018-04-19T19:36:04.516Z,54.40
2018-04-19T19:38:31.957Z,55.10
2018-04-19T19:41:00.171Z,56.10
2018-04-19T19:43:27.621Z,56.00
2018-04-19T19:45:55.062Z,56.60
2018-04-19T19:48:22.517Z,57.50
2018-04-19T19:50:49.951Z,57.80
2018-04-19T19:53:18.168Z,59.60
2018-04-19T19:55:45.605Z,59.50
2018-04-19T19:58:13.064Z,60.50
2018-04-19T20:00:40.513Z,62.20
2018-04-19T20:03:07.978Z,62.80
2018-04-19T20:05:35.426Z,63.90
2018-04-19T20:08:02.885Z,64.50
2018-04-19T20:10:31.085Z,65.90
2018-04-19T20:12:58.541Z,65.80
2018-04-19T20:15:25.982Z,69.30
2018-04-19T20:17:53.430Z,70.10
2018-04-19T20:20:21.630Z,73.10
2018-04-19T20:22:49.104Z,73.10
2018-04-19T20:25:16.573Z,71.50
2018-04-19T20:27:44.031Z,71.50
2018-04-19T20:30:11.465Z,72.60
2018-04-19T20:32:38.945Z,72.60
2018-04-19T20:35:06.407Z,74.10
2018-04-19T20:37:33.878Z,76.00
2018-04-19T20:40:01.335Z,74.90
2018-04-19T20:42:28.794Z,74.60
2018-04-19T20:44:56.248Z,73.00
2018-04-19T20:47:23.724Z,72.00
2018-04-19T20:49:51.938Z,73.10
2018-04-19T20:52:19.377Z,73.00
2018-04-19T20:54:46.829Z,73.10
2018-04-19T20:57:14.278Z,73.40
2018-04-19T20:59:42.507Z,77.20
2018-04-19T21:02:10.061Z,77.20
2018-04-19T21:04:37.415Z,74.60
2018-04-19T21:07:04.872Z,74.50
2018-04-19T21:09:32.330Z,75.50
2018-04-19T21:11:59.795Z,74.90
2018-04-19T21:14:27.314Z,74.40
2018-04-19T21:16:55.522Z,78.80
2018-04-19T21:19:23.033Z,78.70
2018-04-19T21:21:50.483Z,79.50
2018-04-19T21:24:17.978Z,79.10
2018-04-19T21:26:45.445Z,80.30
2018-04-19T21:29:12.954Z,81.20
2018-04-19T21:31:41.179Z,80.80
2018-04-19T21:34:08.675Z,80.60
2018-04-19T21:36:36.137Z,81.40
2018-04-19T21:39:04.375Z,73.30
2018-04-19T21:41:31.859Z,73.70
2018-04-19T21:43:59.340Z,72.10
2018-04-19T21:46:27.584Z,71.10
2018-04-19T21:48:55.082Z,70.50
2018-04-19T21:51:22.557Z,69.00
2018-04-19T21:53:50.040Z,66.90
2018-04-19T21:56:17.508Z,69.20
2018-04-19T21:58:45.003Z,70.50
2018-04-19T22:01:13.279Z,69.90
2018-04-19T22:03:41.522Z,72.10
2018-04-19T22:06:08.992Z,72.00
2018-04-19T22:08:36.470Z,70.10
2018-04-19T22:11:03.949Z,72.90
2018-04-19T22:13:31.406Z,71.80
2018-04-19T22:15:58.883Z,68.00
2018-04-19T22:18:26.348Z,68.20
2018-04-19T22:20:53.822Z,66.80
2018-04-19T22:23:21.325Z,67.90
2018-04-19T22:25:49.578Z,68.30
2018-04-19T22:28:17.105Z,68.30
2018-04-19T22:30:44.579Z,68.30
2018-04-19T22:33:12.061Z,66.40
2018-04-19T22:35:40.298Z,65.20
2018-04-19T22:38:07.755Z,65.40
2018-04-19T22:40:35.246Z,65.10
2018-04-19T22:43:02.703Z,64.30
2018-04-19T22:45:30.186Z,64.10
2018-04-19T22:47:57.667Z,64.50
2018-04-19T22:50:25.171Z,65.10
2018-04-19T22:52:52.640Z,65.40
2018-04-19T22:55:20.888Z,63.50
2018-04-19T22:57:48.365Z,63.30
2018-04-19T23:00:16.721Z,66.60
2018-04-19T23:02:44.211Z,65.30
2018-04-19T23:05:13.384Z,66.30
2018-04-19T23:07:40.850Z,66.30
2018-04-19T23:10:08.314Z,65.30
2018-04-19T23:12:35.788Z,64.00
2018-04-19T23:15:04.049Z,62.40
2018-04-19T23:17:31.552Z,62.40
2018-04-19T23:19:59.770Z,60.50
2018-04-19T23:22:34.002Z,60.50
2018-04-19T23:25:02.248Z,62.70
2018-04-19T23:27:29.731Z,62.70
2018-04-19T23:29:57.205Z,63.70
2018-04-19T23:32:25.467Z,66.70
2018-04-19T23:34:52.939Z,66.50
2018-04-19T23:37:21.186Z,67.90
2018-04-19T23:39:48.727Z,67.90
2018-04-19T23:42:16.136Z,70.30
2018-04-19T23:44:44.358Z,70.40
2018-04-19T23:47:11.821Z,70.20
2018-04-19T23:49:39.277Z,70.20
2018-04-19T23:52:06.742Z,70.00
2018-04-19T23:54:34.193Z,70.00
2018-04-19T23:57:01.666Z,70.60
2018-04-19T23:59:29.121Z,70.80
